Maia — UBGE2 — position and weather

sailwx.info

Track history (hours):
 
Tides and Currents Weather Stations Pressure Air Temp Water Temp Dewpoint Dewpoint Depression Visibility Wind Speed Wind Dir Waves Ship Positions

Maia

Last reported at 2017-Dec-09 04:40 UTC. Time now 2017-Dec-13 01:13 UTC.
Position N 45°32' E 036°48'.

Length 141 m; draft 3.7 m.

Type: Tanker. MMSI: 273313860.

Date/timePositionNaut miles runAvg speedWind from/ knotsBaromVisibWave heightAir tempDewpointWater temp
2017-Dec-09 04:40N 45°32' E 036°48'2 9.1
2017-Dec-09 04:28N 45°31' E 036°45'4 8.7
2017-Dec-09 04:01N 45°27' E 036°42'4 8.4
2017-Dec-09 03:31N 45°23' E 036°41'0 0.4
2017-Dec-09 02:58N 45°23' E 036°42'0 0.0
2017-Dec-09 02:28N 45°23' E 036°42'0 0.0
2017-Dec-09 01:58N 45°23' E 036°42'0 0.0
2017-Dec-09 01:28N 45°23' E 036°42'0 0.0
2017-Dec-09 00:55N 45°23' E 036°42'0 0.0
2017-Dec-09 00:28N 45°23' E 036°42'0 0.0
2017-Dec-08 23:58N 45°23' E 036°42'0 0.0
2017-Dec-08 23:28N 45°23' E 036°42'0 0.1
2017-Dec-08 23:01N 45°23' E 036°42'1 2.9
2017-Dec-08 22:30N 45°22' E 036°40'4 8.1
2017-Dec-08 22:01N 45°20' E 036°35'5 9.3
2017-Dec-08 21:31N 45°18' E 036°29'4 8.3
2017-Dec-08 20:58N 45°14' E 036°29'9 8.0
2017-Dec-08 19:55N 45°06' E 036°34'0 0.0
2017-Dec-08 19:28N 45°06' E 036°34'0 0.0
2017-Dec-08 18:51N 45°06' E 036°34'0 0.0
2017-Dec-08 18:26N 45°06' E 036°34'0 0.0
2017-Dec-08 17:50N 45°06' E 036°34'0 0.0
2017-Dec-08 14:34N 45°06' E 036°34'0 0.0
2017-Dec-08 14:23N 45°06' E 036°34'0 0.0
2017-Dec-08 13:55N 45°06' E 036°34'0 0.0
2017-Dec-08 13:30N 45°06' E 036°34'0 0.0
2017-Dec-08 12:27N 45°06' E 036°34'0 0.0
2017-Dec-08 11:55N 45°06' E 036°34'0 0.0
2017-Dec-08 11:27N 45°06' E 036°34'0 0.0
2017-Dec-08 10:03N 45°06' E 036°34'0 0.1
2017-Dec-08 09:58N 45°06' E 036°34'0 0.0
2017-Dec-08 09:27N 45°06' E 036°34'0 0.0
2017-Dec-08 08:56N 45°06' E 036°34'0 0.0
2017-Dec-08 08:31N 45°06' E 036°34'0 0.0
2017-Dec-08 07:50N 45°06' E 036°34'0 0.0
2017-Dec-08 07:25N 45°06' E 036°34'0 0.0
2017-Dec-08 07:00N 45°06' E 036°34'  
2017-Dec-04 02:22N 45°30' E 036°47'0 0.0
2017-Dec-04 01:55N 45°30' E 036°47'0 0.0
2017-Dec-03 09:58N 45°30' E 036°46'0 0.0
2017-Dec-03 08:13N 45°30' E 036°46'0 0.1
2017-Dec-03 07:58N 45°30' E 036°46'0 0.0
2017-Dec-02 13:52N 45°30' E 036°47'0 0.0
2017-Dec-01 11:20N 45°30' E 036°46'0 0.0
2017-Dec-01 10:59N 45°30' E 036°46'0 0.0
2017-Nov-30 15:33N 45°30' E 036°47'0 0.0
2017-Nov-30 13:39N 45°30' E 036°47'0 0.0
2017-Nov-30 13:10N 45°30' E 036°47'0 0.1
2017-Nov-30 12:50N 45°30' E 036°46'0 0.1
2017-Nov-30 12:08N 45°30' E 036°46'0 0.0
2017-Nov-30 11:56N 45°30' E 036°46'0 0.1
2017-Nov-30 11:16N 45°30' E 036°47'0 0.1
2017-Nov-30 10:53N 45°30' E 036°47'0 0.0
2017-Nov-30 09:36N 45°30' E 036°47'0 0.1
2017-Nov-30 09:26N 45°30' E 036°47'1 2.9
2017-Nov-30 08:58N 45°30' E 036°48'2 2.2
2017-Nov-30 07:58N 45°30' E 036°52'2 4.9
2017-Nov-30 07:30N 45°30' E 036°48'1 0.1
2017-Nov-29 11:01N 45°30' E 036°46'0 0.0
2017-Nov-29 10:55N 45°30' E 036°46'0 0.0
2017-Nov-29 10:28N 45°30' E 036°46'0 0.0
2017-Nov-29 08:13N 45°30' E 036°46'0 0.0
2017-Nov-29 07:55N 45°30' E 036°46'  
Track history (hours):
 
Tides and Currents Weather Stations Pressure Air Temp Water Temp Dewpoint Dewpoint Depression Visibility Wind Speed Wind Dir Waves Ship Positions

Maia

Last reported at 2017-Dec-09 04:40 UTC. Time now 2017-Dec-13 01:13 UTC.
Position N 45°32' E 036°48'.

Length 141 m; draft 3.7 m.

Type: Tanker. MMSI: 273313860.

Date/timePositionNaut miles runAvg speedWind from/ knotsBaromVisibWave heightAir tempDewpointWater temp
2017-Dec-09 04:40N 45°32' E 036°48'2 9.1
2017-Dec-09 04:28N 45°31' E 036°45'4 8.7
2017-Dec-09 04:01N 45°27' E 036°42'4 8.4
2017-Dec-09 03:31N 45°23' E 036°41'0 0.4
2017-Dec-09 02:58N 45°23' E 036°42'0 0.0
2017-Dec-09 02:28N 45°23' E 036°42'0 0.0
2017-Dec-09 01:58N 45°23' E 036°42'0 0.0
2017-Dec-09 01:28N 45°23' E 036°42'0 0.0
2017-Dec-09 00:55N 45°23' E 036°42'0 0.0
2017-Dec-09 00:28N 45°23' E 036°42'0 0.0
2017-Dec-08 23:58N 45°23' E 036°42'0 0.0
2017-Dec-08 23:28N 45°23' E 036°42'0 0.1
2017-Dec-08 23:01N 45°23' E 036°42'1 2.9
2017-Dec-08 22:30N 45°22' E 036°40'4 8.1
2017-Dec-08 22:01N 45°20' E 036°35'5 9.3
2017-Dec-08 21:31N 45°18' E 036°29'4 8.3
2017-Dec-08 20:58N 45°14' E 036°29'9 8.0
2017-Dec-08 19:55N 45°06' E 036°34'0 0.0
2017-Dec-08 19:28N 45°06' E 036°34'0 0.0
2017-Dec-08 18:51N 45°06' E 036°34'0 0.0
2017-Dec-08 18:26N 45°06' E 036°34'0 0.0
2017-Dec-08 17:50N 45°06' E 036°34'0 0.0
2017-Dec-08 14:34N 45°06' E 036°34'0 0.0
2017-Dec-08 14:23N 45°06' E 036°34'0 0.0
2017-Dec-08 13:55N 45°06' E 036°34'0 0.0
2017-Dec-08 13:30N 45°06' E 036°34'0 0.0
2017-Dec-08 12:27N 45°06' E 036°34'0 0.0
2017-Dec-08 11:55N 45°06' E 036°34'0 0.0
2017-Dec-08 11:27N 45°06' E 036°34'0 0.0
2017-Dec-08 10:03N 45°06' E 036°34'0 0.1
2017-Dec-08 09:58N 45°06' E 036°34'0 0.0
2017-Dec-08 09:27N 45°06' E 036°34'0 0.0
2017-Dec-08 08:56N 45°06' E 036°34'0 0.0
2017-Dec-08 08:31N 45°06' E 036°34'0 0.0
2017-Dec-08 07:50N 45°06' E 036°34'0 0.0
2017-Dec-08 07:25N 45°06' E 036°34'0 0.0
2017-Dec-08 07:00N 45°06' E 036°34'  
2017-Dec-04 02:22N 45°30' E 036°47'0 0.0
2017-Dec-04 01:55N 45°30' E 036°47'0 0.0
2017-Dec-03 09:58N 45°30' E 036°46'0 0.0
2017-Dec-03 08:13N 45°30' E 036°46'0 0.1
2017-Dec-03 07:58N 45°30' E 036°46'0 0.0
2017-Dec-02 13:52N 45°30' E 036°47'0 0.0
2017-Dec-01 11:20N 45°30' E 036°46'0 0.0
2017-Dec-01 10:59N 45°30' E 036°46'0 0.0
2017-Nov-30 15:33N 45°30' E 036°47'0 0.0
2017-Nov-30 13:39N 45°30' E 036°47'0 0.0
2017-Nov-30 13:10N 45°30' E 036°47'0 0.1
2017-Nov-30 12:50N 45°30' E 036°46'0 0.1
2017-Nov-30 12:08N 45°30' E 036°46'0 0.0
2017-Nov-30 11:56N 45°30' E 036°46'0 0.1
2017-Nov-30 11:16N 45°30' E 036°47'0 0.1
2017-Nov-30 10:53N 45°30' E 036°47'0 0.0
2017-Nov-30 09:36N 45°30' E 036°47'0 0.1
2017-Nov-30 09:26N 45°30' E 036°47'1 2.9
2017-Nov-30 08:58N 45°30' E 036°48'2 2.2
2017-Nov-30 07:58N 45°30' E 036°52'2 4.9
2017-Nov-30 07:30N 45°30' E 036°48'1 0.1
2017-Nov-29 11:01N 45°30' E 036°46'0 0.0
2017-Nov-29 10:55N 45°30' E 036°46'0 0.0
2017-Nov-29 10:28N 45°30' E 036°46'0 0.0
2017-Nov-29 08:13N 45°30' E 036°46'0 0.0
2017-Nov-29 07:55N 45°30' E 036°46'  

Dump ship's entire track history